This is the latest recevied weather packets stored in our database for station/object N7QNM-13. If no packets are shown the sender has not sent any weather packets the latest 10 day(s).
| Time | Temp. | Humidity | Pressure | Rain* | Wind** | Luminosity | Snow |
|---|---|---|---|---|---|---|---|
| 1777473045 | 13.33° C | 59% | 1021.7 hPa | 0 mm | - | 155 W/m² | - |
| 1777468246 | 8.89° C | 67% | 1020.9 hPa | 0 mm | - | 19 W/m² | - |
| 1777463467 | 11.11° C | 59% | 1020.2 hPa | 0 mm | - | 0 W/m² | - |
| 1777456248 | 12.22° C | 56% | 1019.3 hPa | 0 mm | - | 0 W/m² | - |
| 1777455048 | 12.22° C | 57% | 1019.2 hPa | 0 mm | - | 0 W/m² | - |
| 1777450249 | 13.33° C | 55% | 1019 hPa | 0 mm | - | 0 W/m² | - |
| 1777449049 | 13.33° C | 54% | 1018.8 hPa | 0 mm | - | 0 W/m² | - |
| 1777447851 | 13.89° C | 55% | 1018.7 hPa | 0 mm | - | 0 W/m² | - |
| 1777441271 | 13.89° C | 57% | 1017.8 hPa | 0 mm | - | 0 W/m² | - |
| 1777440051 | 13.33° C | 65% | 1017.7 hPa | 0 mm | - | 0 W/m² | - |
| 1777430453 | 17.78° C | 46% | 1016.1 hPa | 0 mm | - | 14 W/m² | - |
| 1777429853 | 18.33° C | 44% | 1016 hPa | 0 mm | - | 18 W/m² | - |
| 1777417257 | 18.89° C | 43% | 1016.3 hPa | 0 mm | - | 346 W/m² | - |
| 1777410658 | 18.89° C | 45% | 1016.9 hPa | 0 mm | - | 686 W/m² | - |
| 1777405858 | 18.33° C | 48% | 1017.2 hPa | 0 mm | - | 704 W/m² | - |
| 1777399860 | 17.22° C | 48% | 1017.7 hPa | 0 mm | - | 315 W/m² | - |
| 1777399260 | 16.67° C | 48% | 1017.8 hPa | 0 mm | - | 465 W/m² | - |
| 1777397480 | 15° C | 51% | 1017.9 hPa | 0 mm | - | 714 W/m² | - |
| 1777396861 | 14.44° C | 53% | 1017.9 hPa | 0 mm | - | 647 W/m² | - |
| 1777393281 | 13.33° C | 58% | 1017.9 hPa | 0 mm | - | 423 W/m² | - |
| 1777387863 | 10° C | 72% | 1017.5 hPa | 0 mm | - | 222 W/m² | - |
| 1777384262 | 5.56° C | 89% | 1017.1 hPa | 0 mm | - | 90 W/m² | - |
| 1777378264 | 3.89° C | 83% | 1016.2 hPa | 0 mm | - | 0 W/m² | - |
| 1777377683 | 4.44° C | 82% | 1016.2 hPa | 0 mm | - | 0 W/m² | - |
| 1777368065 | 9.44° C | 63% | 1015.2 hPa | 0 mm | - | 0 W/m² | - |
* Rain latest hour (hover to see other rain measurements)
** Current wind speed in m/s (hover to see current wind gust speed)